createdAt,value
2018-03-11T00:00:56.204Z,0.00
2018-03-11T00:02:02.431Z,0.00
2018-03-11T00:03:08.682Z,0.00
2018-03-11T00:04:14.933Z,0.00
2018-03-11T00:05:21.166Z,0.00
2018-03-11T00:06:27.429Z,0.00
2018-03-11T00:07:33.644Z,0.00
2018-03-11T00:08:39.897Z,0.00
2018-03-11T00:09:46.133Z,0.00
2018-03-11T00:10:52.392Z,0.00
2018-03-11T00:11:58.617Z,0.00
2018-03-11T00:13:04.860Z,0.00
2018-03-11T00:14:11.122Z,0.00
2018-03-11T00:15:17.346Z,0.00
2018-03-11T00:16:23.611Z,0.00
2018-03-11T00:17:29.927Z,0.00
2018-03-11T00:18:36.116Z,0.00
2018-03-11T00:19:42.322Z,0.00
2018-03-11T00:20:48.577Z,0.00
2018-03-11T00:21:54.828Z,0.00
2018-03-11T00:23:01.049Z,0.00
2018-03-11T00:24:07.284Z,0.00
2018-03-11T00:25:13.543Z,0.00
2018-03-11T00:26:19.826Z,0.00
2018-03-11T00:27:27.024Z,0.00
2018-03-11T00:28:32.261Z,0.00
2018-03-11T00:29:38.514Z,0.00
2018-03-11T00:30:44.765Z,0.00
2018-03-11T00:31:51.025Z,0.00
2018-03-11T00:32:57.311Z,0.00
2018-03-11T00:34:03.481Z,0.00
2018-03-11T00:35:09.736Z,0.00
2018-03-11T00:36:15.973Z,0.00
2018-03-11T00:37:22.243Z,0.00
2018-03-11T00:38:28.467Z,0.00
2018-03-11T00:39:34.711Z,0.00
2018-03-11T00:40:40.947Z,0.00
2018-03-11T00:41:47.230Z,0.00
2018-03-11T00:42:53.450Z,0.00
2018-03-11T00:43:59.689Z,0.00
2018-03-11T00:45:05.935Z,0.00
2018-03-11T00:46:12.172Z,0.00
2018-03-11T00:47:18.435Z,0.00
2018-03-11T00:48:24.678Z,0.00
2018-03-11T00:49:30.904Z,0.00
2018-03-11T00:50:37.158Z,0.00
2018-03-11T00:51:43.414Z,0.00
2018-03-11T00:52:49.653Z,0.00
2018-03-11T00:53:55.885Z,0.00
2018-03-11T00:55:02.129Z,0.00
2018-03-11T00:56:08.371Z,0.00
2018-03-11T00:57:14.636Z,0.00
2018-03-11T00:58:20.865Z,0.00
2018-03-11T00:59:27.108Z,0.00
2018-03-11T01:00:33.352Z,0.00
2018-03-11T01:01:39.616Z,0.00
2018-03-11T01:02:45.941Z,0.00
2018-03-11T01:03:52.096Z,0.00
2018-03-11T01:04:58.355Z,0.00
2018-03-11T01:06:04.578Z,0.00
2018-03-11T01:07:10.822Z,0.00
2018-03-11T01:08:17.092Z,0.00
2018-03-11T01:09:23.324Z,0.00
2018-03-11T01:10:29.560Z,0.00
2018-03-11T01:11:35.811Z,0.00
2018-03-11T01:12:42.076Z,0.00
2018-03-11T01:13:48.295Z,0.00
2018-03-11T01:14:54.551Z,0.00
2018-03-11T01:16:00.791Z,0.00
2018-03-11T01:17:07.034Z,0.00
2018-03-11T01:18:13.289Z,0.00
2018-03-11T01:19:19.506Z,0.00
2018-03-11T01:20:25.746Z,0.00
2018-03-11T01:21:31.991Z,0.00
2018-03-11T01:22:38.235Z,0.00
2018-03-11T01:23:44.496Z,0.00
2018-03-11T01:24:50.713Z,0.00
2018-03-11T01:25:57.455Z,0.00
2018-03-11T01:27:03.199Z,0.00
2018-03-11T01:28:09.449Z,0.00
2018-03-11T01:29:15.687Z,0.00
2018-03-11T01:30:21.913Z,0.00
2018-03-11T01:31:28.160Z,0.00
2018-03-11T01:32:34.405Z,0.00
2018-03-11T01:33:40.670Z,0.00
2018-03-11T01:34:46.888Z,0.00
2018-03-11T01:35:53.117Z,0.00
2018-03-11T01:36:59.359Z,0.00
2018-03-11T01:38:05.599Z,0.00
2018-03-11T01:39:11.944Z,0.00
2018-03-11T01:40:18.088Z,0.00
2018-03-11T01:41:24.317Z,0.00
2018-03-11T01:42:30.559Z,0.00
2018-03-11T01:43:36.817Z,0.00
2018-03-11T01:44:43.032Z,0.00
2018-03-11T01:45:49.276Z,0.00
2018-03-11T01:46:55.510Z,0.00
2018-03-11T01:48:01.744Z,0.00
2018-03-11T01:49:08.014Z,0.00
2018-03-11T01:50:14.234Z,0.00
2018-03-11T01:51:20.462Z,0.00
2018-03-11T01:52:26.707Z,0.00
2018-03-11T01:53:32.952Z,0.00
2018-03-11T01:54:39.201Z,0.00
2018-03-11T01:55:45.430Z,0.00
2018-03-11T01:56:51.683Z,0.00
2018-03-11T01:57:57.912Z,0.00
2018-03-11T01:59:04.151Z,0.00
2018-03-11T02:00:10.406Z,0.00
2018-03-11T02:01:16.660Z,0.00
2018-03-11T02:02:22.867Z,0.00
2018-03-11T02:03:29.107Z,0.00
2018-03-11T02:04:35.373Z,0.00
2018-03-11T02:05:41.600Z,0.00
2018-03-11T02:06:47.850Z,0.00
2018-03-11T02:07:54.066Z,0.00
2018-03-11T02:09:00.301Z,0.00
2018-03-11T02:10:06.604Z,0.00
2018-03-11T02:11:12.790Z,0.00
2018-03-11T02:12:19.018Z,0.00
2018-03-11T02:13:25.267Z,0.00
2018-03-11T02:14:31.986Z,0.00
2018-03-11T02:15:37.760Z,0.00
2018-03-11T02:16:43.993Z,0.00
2018-03-11T02:17:50.211Z,0.00
2018-03-11T02:18:56.451Z,0.00
2018-03-11T02:20:02.717Z,0.00
2018-03-11T02:21:08.941Z,0.00
2018-03-11T02:22:15.171Z,0.00
2018-03-11T02:23:21.419Z,0.00
2018-03-11T02:24:27.655Z,0.00
2018-03-11T02:25:33.908Z,0.00
2018-03-11T02:26:40.124Z,0.00
2018-03-11T02:27:46.373Z,0.00
2018-03-11T02:28:53.119Z,0.00
2018-03-11T02:29:58.858Z,0.00
2018-03-11T02:31:05.122Z,0.00
2018-03-11T02:32:11.343Z,0.00
2018-03-11T02:33:17.580Z,0.00
2018-03-11T02:34:23.810Z,0.00
2018-03-11T02:35:30.089Z,0.00
2018-03-11T02:36:36.294Z,0.00
2018-03-11T02:37:42.535Z,0.00
2018-03-11T02:38:48.788Z,0.00
2018-03-11T02:39:55.031Z,0.00
2018-03-11T02:41:01.292Z,0.00
2018-03-11T02:42:07.519Z,0.00
2018-03-11T02:43:13.750Z,0.00
2018-03-11T02:44:19.976Z,0.00
2018-03-11T02:45:26.218Z,0.00
2018-03-11T02:46:33.479Z,0.00
2018-03-11T02:47:39.703Z,0.00
2018-03-11T02:48:44.931Z,0.00
2018-03-11T02:49:51.177Z,0.00
2018-03-11T02:50:57.406Z,0.00
2018-03-11T02:52:03.681Z,0.00
2018-03-11T02:53:09.883Z,0.00
2018-03-11T02:54:16.128Z,0.00
2018-03-11T02:55:23.362Z,0.00
2018-03-11T02:56:28.632Z,0.00
2018-03-11T02:57:34.852Z,0.00
2018-03-11T02:58:41.080Z,0.00
2018-03-11T02:59:47.320Z,0.00
2018-03-11T03:00:53.555Z,0.00
2018-03-11T03:01:59.826Z,0.00
2018-03-11T03:03:06.059Z,0.00
2018-03-11T03:04:12.278Z,0.00
2018-03-11T03:05:19.004Z,0.00
2018-03-11T03:06:24.788Z,0.00
2018-03-11T03:07:31.002Z,0.00
2018-03-11T03:08:37.242Z,0.00
2018-03-11T03:09:43.476Z,0.00
2018-03-11T03:10:49.715Z,0.00
2018-03-11T03:11:55.966Z,0.00
2018-03-11T03:13:02.176Z,0.00
2018-03-11T03:14:08.418Z,0.00
2018-03-11T03:15:14.644Z,0.00
2018-03-11T03:16:20.892Z,0.00
2018-03-11T03:17:27.151Z,0.00
2018-03-11T03:18:33.361Z,0.00
2018-03-11T03:19:40.103Z,0.00
2018-03-11T03:20:45.835Z,0.00
2018-03-11T03:21:52.102Z,0.00
2018-03-11T03:22:58.334Z,0.00
2018-03-11T03:24:04.570Z,0.00
2018-03-11T03:25:10.788Z,0.00
2018-03-11T03:26:17.036Z,0.00
2018-03-11T03:27:23.289Z,0.00
2018-03-11T03:28:29.501Z,0.00
2018-03-11T03:29:35.749Z,0.00
2018-03-11T03:30:41.992Z,0.00
2018-03-11T03:31:48.245Z,0.00
2018-03-11T03:32:54.450Z,0.00
2018-03-11T03:34:01.182Z,0.00
2018-03-11T03:35:06.989Z,0.00
2018-03-11T03:36:13.160Z,0.00
2018-03-11T03:37:19.430Z,0.00
2018-03-11T03:38:25.656Z,0.00
2018-03-11T03:39:31.932Z,0.00
2018-03-11T03:40:38.100Z,0.00
2018-03-11T03:41:44.326Z,0.00
2018-03-11T03:42:50.604Z,0.00
2018-03-11T03:43:56.808Z,0.00
2018-03-11T03:45:03.044Z,0.00
2018-03-11T03:46:09.268Z,0.00
2018-03-11T03:47:15.505Z,0.00
2018-03-11T03:48:21.766Z,0.00
2018-03-11T03:49:28.972Z,0.00
2018-03-11T03:50:34.213Z,0.00
2018-03-11T03:51:40.433Z,0.00
2018-03-11T03:52:46.688Z,0.00
2018-03-11T03:53:52.878Z,0.00
2018-03-11T03:54:59.115Z,0.00
2018-03-11T03:56:05.339Z,0.00
2018-03-11T03:57:11.555Z,0.00
2018-03-11T03:58:17.807Z,0.00
2018-03-11T03:59:23.992Z,0.00
2018-03-11T04:00:30.212Z,0.00
2018-03-11T04:01:36.437Z,0.00
2018-03-11T04:02:42.657Z,0.00
2018-03-11T04:03:48.881Z,0.00
2018-03-11T04:04:55.272Z,0.00
2018-03-11T04:06:01.288Z,0.00
2018-03-11T04:07:07.519Z,0.00
2018-03-11T04:08:13.745Z,0.00
2018-03-11T04:09:19.936Z,0.00
2018-03-11T04:10:26.154Z,0.00
2018-03-11T04:11:32.352Z,0.00
2018-03-11T04:12:38.564Z,0.00
2018-03-11T04:13:44.804Z,0.00
2018-03-11T04:14:50.996Z,0.00
2018-03-11T04:15:57.686Z,0.00
2018-03-11T04:17:03.408Z,0.00
2018-03-11T04:18:09.620Z,0.00
2018-03-11T04:19:15.840Z,0.00
2018-03-11T04:20:22.027Z,0.00
2018-03-11T04:21:28.729Z,0.00
2018-03-11T04:22:34.442Z,0.00
2018-03-11T04:23:40.672Z,0.00
2018-03-11T04:24:46.865Z,0.00
2018-03-11T04:25:53.068Z,0.00
2018-03-11T04:26:59.277Z,0.00
2018-03-11T04:28:05.476Z,0.00
2018-03-11T04:29:12.228Z,0.00
2018-03-11T04:30:17.948Z,0.00
2018-03-11T04:31:24.098Z,0.00
2018-03-11T04:32:30.318Z,0.00
2018-03-11T04:33:36.522Z,0.00
2018-03-11T04:34:42.752Z,0.00
2018-03-11T04:35:48.935Z,0.00
2018-03-11T04:36:55.640Z,0.00
2018-03-11T04:38:01.369Z,0.00
2018-03-11T04:39:07.577Z,0.00
2018-03-11T04:40:13.811Z,0.00
2018-03-11T04:41:20.469Z,0.00
2018-03-11T04:42:26.182Z,0.00
2018-03-11T04:43:32.401Z,0.00
2018-03-11T04:44:39.634Z,0.00
2018-03-11T04:45:44.817Z,0.00
2018-03-11T04:46:51.031Z,0.00
2018-03-11T04:47:57.423Z,0.00
2018-03-11T04:49:03.450Z,0.00
2018-03-11T04:50:09.666Z,0.00
2018-03-11T04:51:15.931Z,0.00
2018-03-11T04:52:22.062Z,0.00
2018-03-11T04:53:28.762Z,0.00
2018-03-11T04:54:35.482Z,0.00
2018-03-11T04:55:40.703Z,0.00
2018-03-11T04:56:46.897Z,0.00
2018-03-11T04:57:53.113Z,0.00
2018-03-11T04:58:59.312Z,0.00
2018-03-11T05:00:05.539Z,0.00
2018-03-11T05:01:11.717Z,0.00
2018-03-11T05:02:17.933Z,0.00
2018-03-11T05:03:24.137Z,0.00
2018-03-11T05:04:30.337Z,0.00
2018-03-11T05:05:36.568Z,0.00
2018-03-11T05:06:42.760Z,0.00
2018-03-11T05:07:48.974Z,0.00
2018-03-11T05:08:55.177Z,0.00
2018-03-11T05:10:01.370Z,0.00
2018-03-11T05:11:07.612Z,0.00
2018-03-11T05:12:13.795Z,0.00
2018-03-11T05:13:19.993Z,0.00
2018-03-11T05:14:26.218Z,0.00
2018-03-11T05:15:32.435Z,0.00
2018-03-11T05:16:38.643Z,0.00
2018-03-11T05:17:44.822Z,0.00
2018-03-11T05:18:51.041Z,0.00
2018-03-11T05:19:57.238Z,4.00
2018-03-11T05:21:03.446Z,0.00
2018-03-11T05:22:09.669Z,4.00
2018-03-11T05:23:15.922Z,4.00
2018-03-11T05:24:22.050Z,4.00
2018-03-11T05:25:28.748Z,8.00
2018-03-11T05:26:34.512Z,8.00
2018-03-11T05:27:40.670Z,12.00
2018-03-11T05:28:46.872Z,16.00
2018-03-11T05:29:53.079Z,16.00
2018-03-11T05:30:59.287Z,20.00
2018-03-11T05:32:05.503Z,24.00
2018-03-11T05:33:11.689Z,32.00
2018-03-11T05:34:17.889Z,44.00
2018-03-11T05:35:24.096Z,56.00
2018-03-11T05:36:30.290Z,68.00
2018-03-11T05:37:36.706Z,84.00
2018-03-11T05:38:42.698Z,96.00
2018-03-11T05:39:48.898Z,112.00
2018-03-11T05:40:55.097Z,132.00
2018-03-11T05:42:01.317Z,156.00
2018-03-11T05:43:07.500Z,172.00
2018-03-11T05:44:13.692Z,196.00
2018-03-11T05:45:19.898Z,216.00
2018-03-11T05:46:26.090Z,240.00
2018-03-11T05:47:32.320Z,264.00
2018-03-11T05:48:38.489Z,288.00
2018-03-11T05:49:44.687Z,308.00
2018-03-11T05:50:50.889Z,332.00
2018-03-11T05:51:57.116Z,352.00
2018-03-11T05:53:03.785Z,372.00
2018-03-11T05:54:09.486Z,400.00
2018-03-11T05:55:15.680Z,428.00
2018-03-11T05:56:21.940Z,460.00
2018-03-11T05:57:28.092Z,492.00
2018-03-11T05:58:34.260Z,532.00
2018-03-11T05:59:40.466Z,576.00
2018-03-11T06:00:46.661Z,628.00
2018-03-11T06:01:52.842Z,688.00
2018-03-11T06:02:59.066Z,752.00
2018-03-11T06:04:05.232Z,816.00
2018-03-11T06:05:11.440Z,872.00
2018-03-11T06:06:17.671Z,928.00
2018-03-11T06:07:23.822Z,992.00
2018-03-11T06:08:30.038Z,1060.00
2018-03-11T06:09:36.226Z,1140.00
2018-03-11T06:10:42.426Z,1208.00
2018-03-11T06:11:48.624Z,1272.00
2018-03-11T06:12:54.854Z,1304.00
2018-03-11T06:14:01.040Z,1296.00
2018-03-11T06:15:07.237Z,1312.00
2018-03-11T06:16:13.433Z,1304.00
2018-03-11T06:17:19.635Z,1252.00
2018-03-11T06:18:25.951Z,1232.00
2018-03-11T06:19:32.058Z,1276.00
2018-03-11T06:20:38.262Z,1340.00
2018-03-11T06:21:44.460Z,1416.00
2018-03-11T06:22:51.685Z,1532.00
2018-03-11T06:23:56.897Z,1656.00
2018-03-11T06:25:03.091Z,1756.00
2018-03-11T06:26:09.297Z,1900.00
2018-03-11T06:27:15.521Z,2024.00
2018-03-11T06:28:21.714Z,2160.00
2018-03-11T06:29:27.940Z,2300.00
2018-03-11T06:30:34.126Z,2440.00
2018-03-11T06:31:40.345Z,2612.00
2018-03-11T06:32:46.565Z,2788.00
2018-03-11T06:33:52.807Z,2960.00
2018-03-11T06:34:58.994Z,3132.00
2018-03-11T06:36:05.208Z,3256.00
2018-03-11T06:37:11.409Z,3316.00
2018-03-11T06:38:17.639Z,3348.00
2018-03-11T06:39:23.972Z,3372.00
2018-03-11T06:40:30.071Z,3344.00
2018-03-11T06:41:36.297Z,3364.00
2018-03-11T06:42:42.506Z,3400.00
2018-03-11T06:43:48.756Z,3444.00
2018-03-11T06:44:54.962Z,3508.00
2018-03-11T06:46:01.186Z,3512.00
2018-03-11T06:47:07.593Z,3548.00
2018-03-11T06:48:13.621Z,3676.00
2018-03-11T06:49:19.952Z,3812.00
2018-03-11T06:50:26.066Z,3964.00
2018-03-11T06:51:32.285Z,4156.00
2018-03-11T06:52:38.512Z,4348.00
2018-03-11T06:53:44.734Z,4552.00
2018-03-11T06:54:50.981Z,4772.00
2018-03-11T06:55:57.187Z,5008.00
2018-03-11T06:57:03.926Z,5176.00
2018-03-11T06:58:09.696Z,5308.00
2018-03-11T06:59:15.880Z,5444.00
2018-03-11T07:00:22.127Z,5556.00
2018-03-11T07:01:28.359Z,4988.00
2018-03-11T07:02:35.077Z,5924.00
2018-03-11T07:03:40.820Z,6132.00
2018-03-11T07:04:47.085Z,6260.00
2018-03-11T07:05:53.321Z,6300.00
2018-03-11T07:06:59.539Z,6360.00
2018-03-11T07:08:05.801Z,6304.00
2018-03-11T07:09:12.027Z,6180.00
2018-03-11T07:10:18.771Z,6148.00
2018-03-11T07:11:24.566Z,6120.00
2018-03-11T07:12:30.785Z,6208.00
2018-03-11T07:13:37.049Z,6232.00
2018-03-11T07:14:43.289Z,6168.00
2018-03-11T07:15:49.566Z,5980.00
2018-03-11T07:16:55.807Z,5776.00
2018-03-11T07:18:02.061Z,5716.00
2018-03-11T07:19:08.337Z,5796.00
2018-03-11T07:20:14.597Z,5972.00
2018-03-11T07:21:20.886Z,6244.00
2018-03-11T07:22:27.122Z,6440.00
2018-03-11T07:23:33.378Z,6336.00
2018-03-11T07:24:39.646Z,6152.00
2018-03-11T07:25:45.938Z,5996.00
2018-03-11T07:26:52.181Z,5876.00
2018-03-11T07:27:58.451Z,5692.00
2018-03-11T07:29:04.714Z,5400.00
2018-03-11T07:30:10.991Z,5044.00
2018-03-11T07:31:17.282Z,4820.00
2018-03-11T07:32:24.016Z,4572.00
2018-03-11T07:33:29.787Z,4392.00
2018-03-11T07:34:36.048Z,4216.00
2018-03-11T07:35:42.333Z,4116.00
2018-03-11T07:36:49.084Z,4088.00
2018-03-11T07:37:54.828Z,4152.00
2018-03-11T07:39:01.575Z,4144.00
2018-03-11T07:40:07.338Z,4164.00
2018-03-11T07:41:14.128Z,4160.00
2018-03-11T07:42:19.933Z,4184.00
2018-03-11T07:43:26.099Z,4220.00
2018-03-11T07:44:32.346Z,4276.00
2018-03-11T07:45:38.607Z,4384.00
2018-03-11T07:46:44.867Z,4672.00
2018-03-11T07:47:51.596Z,5252.00
2018-03-11T07:48:57.915Z,5964.00
2018-03-11T07:50:03.607Z,6628.00
2018-03-11T07:51:09.862Z,7472.00
2018-03-11T07:52:16.146Z,8444.00
2018-03-11T07:53:22.390Z,8876.00
2018-03-11T07:54:28.689Z,9068.00
2018-03-11T07:55:34.932Z,9264.00
2018-03-11T07:56:41.721Z,9768.00
2018-03-11T07:57:47.523Z,9328.00
2018-03-11T07:58:53.794Z,8732.00
2018-03-11T08:00:00.077Z,7948.00
2018-03-11T08:01:06.364Z,7968.00
2018-03-11T08:02:12.663Z,7420.00
2018-03-11T08:03:19.000Z,6760.00
2018-03-11T08:04:25.254Z,5992.00
2018-03-11T08:05:32.535Z,5808.00
2018-03-11T08:06:37.918Z,6116.00
2018-03-11T08:07:44.162Z,6272.00
2018-03-11T08:08:50.421Z,6408.00
2018-03-11T08:09:56.704Z,5976.00
2018-03-11T08:11:02.991Z,5248.00
2018-03-11T08:12:09.284Z,5072.00
2018-03-11T08:13:15.593Z,5188.00
2018-03-11T08:14:21.929Z,5364.00
2018-03-11T08:15:28.145Z,5592.00
2018-03-11T08:16:34.427Z,5444.00
2018-03-11T08:17:40.735Z,5352.00
2018-03-11T08:18:47.006Z,5356.00
2018-03-11T08:19:53.284Z,5400.00
2018-03-11T08:20:59.567Z,5472.00
2018-03-11T08:22:05.951Z,5532.00
2018-03-11T08:23:12.156Z,5916.00
2018-03-11T08:24:18.403Z,6524.00
2018-03-11T08:25:24.675Z,7456.00
2018-03-11T08:26:31.459Z,7936.00
2018-03-11T08:27:37.244Z,7600.00
2018-03-11T08:28:43.561Z,6924.00
2018-03-11T08:29:49.949Z,6376.00
2018-03-11T08:30:56.613Z,6136.00
2018-03-11T08:32:02.420Z,6120.00
2018-03-11T08:33:08.716Z,6300.00
2018-03-11T08:34:15.026Z,6892.00
2018-03-11T08:35:21.305Z,7984.00
2018-03-11T08:36:27.617Z,9068.00
2018-03-11T08:37:33.919Z,9880.00
2018-03-11T08:38:40.253Z,10180.00
2018-03-11T08:39:46.567Z,10500.00
2018-03-11T08:40:52.867Z,10924.00
2018-03-11T08:41:59.198Z,11660.00
2018-03-11T08:43:05.534Z,12500.00
2018-03-11T08:44:11.905Z,13300.00
2018-03-11T08:45:18.225Z,13700.00
2018-03-11T08:46:24.564Z,14196.00
2018-03-11T08:47:31.236Z,14728.00
2018-03-11T08:48:37.314Z,15064.00
2018-03-11T08:49:43.694Z,14780.00
2018-03-11T08:50:50.035Z,13860.00
2018-03-11T08:51:56.424Z,13652.00
2018-03-11T08:53:02.809Z,13888.00
2018-03-11T08:54:09.210Z,14424.00
2018-03-11T08:55:15.585Z,14364.00
2018-03-11T08:56:21.977Z,15032.00
2018-03-11T08:57:28.360Z,15640.00
2018-03-11T08:58:34.758Z,14876.00
2018-03-11T08:59:41.233Z,13484.00
2018-03-11T09:00:47.574Z,12324.00
2018-03-11T09:01:53.978Z,11352.00
2018-03-11T09:03:00.390Z,11780.00
2018-03-11T09:04:06.805Z,12204.00
2018-03-11T09:05:13.233Z,13544.00
2018-03-11T09:06:19.634Z,14400.00
2018-03-11T09:07:26.503Z,15036.00
2018-03-11T09:08:32.423Z,14584.00
2018-03-11T09:09:38.868Z,14316.00
2018-03-11T09:10:45.254Z,13860.00
2018-03-11T09:11:51.677Z,13804.00
2018-03-11T09:12:58.107Z,13948.00
2018-03-11T09:14:04.531Z,13788.00
2018-03-11T09:15:10.967Z,14572.00
2018-03-11T09:16:17.412Z,15536.00
2018-03-11T09:17:23.818Z,15596.00
2018-03-11T09:18:30.262Z,15432.00
2018-03-11T09:19:37.204Z,15240.00
2018-03-11T09:20:43.112Z,15228.00
2018-03-11T09:21:49.568Z,14564.00
2018-03-11T09:22:56.506Z,13204.00
2018-03-11T09:24:02.448Z,12500.00
2018-03-11T09:25:08.898Z,13128.00
2018-03-11T09:26:15.310Z,14276.00
2018-03-11T09:27:22.238Z,14740.00
2018-03-11T09:28:28.186Z,14352.00
2018-03-11T09:29:34.638Z,13760.00
2018-03-11T09:30:41.107Z,13536.00
2018-03-11T09:31:47.519Z,13772.00
2018-03-11T09:32:53.954Z,13884.00
2018-03-11T09:34:00.891Z,13724.00
2018-03-11T09:35:06.897Z,13684.00
2018-03-11T09:36:13.289Z,14208.00
2018-03-11T09:37:19.716Z,14600.00
2018-03-11T09:38:26.149Z,14356.00
2018-03-11T09:39:32.593Z,14584.00
2018-03-11T09:40:39.051Z,15248.00
2018-03-11T09:41:49.029Z,15464.00
2018-03-11T09:42:51.935Z,15392.00
2018-03-11T09:43:58.367Z,15836.00
2018-03-11T09:45:04.821Z,16128.00
2018-03-11T09:46:11.773Z,15904.00
2018-03-11T09:47:17.740Z,15256.00
2018-03-11T09:48:24.157Z,14736.00
2018-03-11T09:49:30.617Z,14620.00
2018-03-11T09:50:37.056Z,14836.00
2018-03-11T09:51:43.531Z,15092.00
2018-03-11T09:52:50.448Z,15408.00
2018-03-11T09:53:56.408Z,16336.00
2018-03-11T09:55:02.875Z,17304.00
2018-03-11T09:56:09.341Z,17824.00
2018-03-11T09:57:15.772Z,17824.00
2018-03-11T09:58:22.246Z,17984.00
2018-03-11T09:59:28.705Z,18848.00
2018-03-11T10:00:35.162Z,19168.00
2018-03-11T10:01:41.646Z,18688.00
2018-03-11T10:02:48.101Z,18272.00
2018-03-11T10:03:55.065Z,18720.00
2018-03-11T10:05:01.065Z,19168.00
2018-03-11T10:06:07.535Z,18912.00
2018-03-11T10:07:14.030Z,18816.00
2018-03-11T10:08:20.494Z,19264.00
2018-03-11T10:09:27.002Z,20064.00
2018-03-11T10:10:33.534Z,20768.00
2018-03-11T10:11:39.985Z,21472.00
2018-03-11T10:12:46.457Z,21984.00
2018-03-11T10:13:52.954Z,22144.00
2018-03-11T10:14:59.468Z,21632.00
2018-03-11T10:16:05.969Z,20864.00
2018-03-11T10:17:12.495Z,20224.00
2018-03-11T10:18:18.989Z,20032.00
2018-03-11T10:19:25.507Z,19968.00
2018-03-11T10:20:32.012Z,19904.00
2018-03-11T10:21:39.008Z,19648.00
2018-03-11T10:22:45.056Z,19296.00
2018-03-11T10:23:51.545Z,19104.00
2018-03-11T10:24:58.051Z,19296.00
2018-03-11T10:26:05.077Z,19776.00
2018-03-11T10:27:11.106Z,20224.00
2018-03-11T10:28:17.631Z,20768.00
2018-03-11T10:29:24.118Z,21184.00
2018-03-11T10:30:30.646Z,21504.00
2018-03-11T10:31:37.172Z,21664.00
2018-03-11T10:32:43.715Z,21600.00
2018-03-11T10:33:50.223Z,21280.00
2018-03-11T10:34:56.754Z,20832.00
2018-03-11T10:36:03.342Z,20224.00
2018-03-11T10:37:09.811Z,19712.00
2018-03-11T10:38:16.377Z,19072.00
2018-03-11T10:39:22.901Z,18272.00
2018-03-11T10:40:29.422Z,17760.00
2018-03-11T10:41:35.952Z,17696.00
2018-03-11T10:42:42.508Z,18080.00
2018-03-11T10:43:49.026Z,18624.00
2018-03-11T10:44:55.549Z,18976.00
2018-03-11T10:46:02.088Z,19456.00
2018-03-11T10:47:08.625Z,20480.00
2018-03-11T10:48:15.167Z,21440.00
2018-03-11T10:49:21.683Z,22080.00
2018-03-11T10:50:28.218Z,22752.00
2018-03-11T10:51:34.768Z,23360.00
2018-03-11T10:52:41.334Z,24000.00
2018-03-11T10:53:48.343Z,24480.00
2018-03-11T10:54:54.397Z,24160.00
2018-03-11T10:56:00.953Z,23360.00
2018-03-11T10:57:07.512Z,22336.00
2018-03-11T10:58:15.088Z,21344.00
2018-03-11T10:59:21.130Z,19968.00
2018-03-11T11:00:27.235Z,18784.00
2018-03-11T11:01:33.766Z,17920.00
2018-03-11T11:02:40.309Z,17228.00
2018-03-11T11:03:46.887Z,16844.00
2018-03-11T11:04:53.418Z,16508.00
2018-03-11T11:05:59.958Z,16240.00
2018-03-11T11:07:06.503Z,15928.00
2018-03-11T11:08:13.070Z,15672.00
2018-03-11T11:09:19.578Z,15460.00
2018-03-11T11:10:26.105Z,15452.00
2018-03-11T11:11:32.632Z,15616.00
2018-03-11T11:12:39.154Z,15896.00
2018-03-11T11:13:45.700Z,16244.00
2018-03-11T11:14:52.194Z,16392.00
2018-03-11T11:15:58.718Z,16488.00
2018-03-11T11:17:05.242Z,16520.00
2018-03-11T11:18:11.742Z,16436.00
2018-03-11T11:19:18.309Z,16340.00
2018-03-11T11:20:24.782Z,16244.00
2018-03-11T11:21:31.300Z,16264.00
2018-03-11T11:22:37.820Z,16728.00
2018-03-11T11:23:44.350Z,17664.00
2018-03-11T11:24:50.872Z,18016.00
2018-03-11T11:25:57.371Z,17952.00
2018-03-11T11:27:04.387Z,17632.00
2018-03-11T11:28:10.423Z,17092.00
2018-03-11T11:29:16.964Z,16856.00
2018-03-11T11:30:23.473Z,16768.00
2018-03-11T11:31:29.986Z,16832.00
2018-03-11T11:32:36.518Z,16836.00
2018-03-11T11:33:43.521Z,17348.00
2018-03-11T11:34:49.578Z,17760.00
2018-03-11T11:35:56.088Z,17760.00
2018-03-11T11:37:03.807Z,17192.00
2018-03-11T11:38:09.149Z,16648.00
2018-03-11T11:39:15.667Z,16376.00
2018-03-11T11:40:22.271Z,16568.00
2018-03-11T11:41:28.819Z,17276.00
2018-03-11T11:42:35.324Z,18912.00
2018-03-11T11:43:41.791Z,21280.00
2018-03-11T11:44:48.342Z,21920.00
2018-03-11T11:45:54.928Z,21824.00
2018-03-11T11:47:01.398Z,21600.00
2018-03-11T11:48:07.952Z,21024.00
2018-03-11T11:49:14.485Z,20192.00
2018-03-11T11:50:21.063Z,19360.00
2018-03-11T11:51:27.590Z,18720.00
2018-03-11T11:52:34.126Z,18240.00
2018-03-11T11:53:40.678Z,17792.00
2018-03-11T11:54:47.247Z,17268.00
2018-03-11T11:55:55.272Z,17036.00
2018-03-11T11:57:00.811Z,17160.00
2018-03-11T11:58:07.344Z,17728.00
2018-03-11T11:59:13.382Z,18240.00
2018-03-11T12:00:19.917Z,19136.00
2018-03-11T12:01:26.477Z,20320.00
2018-03-11T12:02:32.999Z,22528.00
2018-03-11T12:03:39.537Z,24992.00
2018-03-11T12:04:46.089Z,28576.00
2018-03-11T12:05:52.653Z,30176.00
2018-03-11T12:06:59.204Z,31072.00
2018-03-11T12:08:06.264Z,32736.00
2018-03-11T12:09:12.348Z,39648.00
2018-03-11T12:10:18.929Z,47904.00
2018-03-11T12:11:25.549Z,52352.00
2018-03-11T12:12:32.153Z,39200.00
2018-03-11T12:13:38.786Z,38240.00
2018-03-11T12:14:45.918Z,33632.00
2018-03-11T12:15:52.098Z,34752.00
2018-03-11T12:16:58.759Z,34624.00
2018-03-11T12:18:05.366Z,35520.00
2018-03-11T12:19:12.037Z,35680.00
2018-03-11T12:20:18.707Z,33216.00
2018-03-11T12:21:26.407Z,31776.00
2018-03-11T12:22:32.050Z,30240.00
2018-03-11T12:23:38.725Z,27872.00
2018-03-11T12:24:45.892Z,25856.00
2018-03-11T12:25:52.071Z,24320.00
2018-03-11T12:26:59.237Z,22912.00
2018-03-11T12:28:05.389Z,21792.00
2018-03-11T12:29:12.021Z,20672.00
2018-03-11T12:30:18.667Z,19328.00
2018-03-11T12:31:25.306Z,17728.00
2018-03-11T12:32:31.915Z,16128.00
2018-03-11T12:33:38.508Z,15272.00
2018-03-11T12:34:45.115Z,14872.00
2018-03-11T12:35:51.721Z,14736.00
2018-03-11T12:36:58.323Z,14576.00
2018-03-11T12:38:05.074Z,14320.00
2018-03-11T12:39:11.453Z,14220.00
2018-03-11T12:40:18.521Z,14256.00
2018-03-11T12:41:24.611Z,14300.00
2018-03-11T12:42:31.139Z,14444.00
2018-03-11T12:43:37.703Z,14524.00
2018-03-11T12:44:44.261Z,14444.00
2018-03-11T12:45:50.796Z,14336.00
2018-03-11T12:46:57.354Z,14244.00
2018-03-11T12:48:04.176Z,14660.00
2018-03-11T12:49:10.919Z,15484.00
2018-03-11T12:50:16.943Z,16336.00
2018-03-11T12:51:23.496Z,17060.00
2018-03-11T12:52:30.005Z,17952.00
2018-03-11T12:53:36.534Z,18976.00
2018-03-11T12:54:43.062Z,20032.00
2018-03-11T12:55:49.607Z,20416.00
2018-03-11T12:56:57.161Z,20416.00
2018-03-11T12:58:02.737Z,20864.00
2018-03-11T12:59:09.217Z,21216.00
2018-03-11T13:00:15.760Z,22272.00
2018-03-11T13:01:22.335Z,22400.00
2018-03-11T13:02:28.933Z,22400.00
2018-03-11T13:03:35.418Z,22208.00
2018-03-11T13:04:41.974Z,22496.00
2018-03-11T13:05:49.021Z,23104.00
2018-03-11T13:06:55.121Z,23616.00
2018-03-11T13:08:01.665Z,23744.00
2018-03-11T13:09:08.732Z,23520.00
2018-03-11T13:10:14.812Z,23200.00
2018-03-11T13:11:21.418Z,22720.00
2018-03-11T13:12:27.975Z,22048.00
2018-03-11T13:13:34.566Z,21568.00
2018-03-11T13:14:41.135Z,21056.00
2018-03-11T13:15:47.725Z,20672.00
2018-03-11T13:16:54.334Z,20256.00
2018-03-11T13:18:00.910Z,19840.00
2018-03-11T13:19:07.495Z,19264.00
2018-03-11T13:20:14.071Z,18720.00
2018-03-11T13:21:20.690Z,18240.00
2018-03-11T13:22:27.249Z,17792.00
2018-03-11T13:23:33.846Z,17196.00
2018-03-11T13:24:40.406Z,16764.00
2018-03-11T13:25:47.275Z,16312.00
2018-03-11T13:26:54.073Z,15816.00
2018-03-11T13:28:00.127Z,15344.00
2018-03-11T13:29:06.698Z,14900.00
2018-03-11T13:30:13.262Z,14484.00
2018-03-11T13:31:19.851Z,14056.00
2018-03-11T13:32:26.376Z,13624.00
2018-03-11T13:33:32.930Z,13236.00
2018-03-11T13:34:39.472Z,12920.00
2018-03-11T13:35:46.509Z,12676.00
2018-03-11T13:36:52.583Z,12460.00
2018-03-11T13:37:59.111Z,12264.00
2018-03-11T13:39:05.628Z,12072.00
2018-03-11T13:40:12.167Z,11940.00
2018-03-11T13:41:18.715Z,11956.00
2018-03-11T13:42:25.224Z,12180.00
2018-03-11T13:43:32.738Z,12636.00
2018-03-11T13:44:38.266Z,13272.00